Time;durP1;ratioP1;P1;durP2;ratioP2;P2;SDS_P1;SDS_P2;PMS_P1;PMS_P2;Temp;Humidity;BMP_temperature;BMP_pressure;BME280_temperature;BME280_humidity;BME280_pressure;Samples;Min_cycle;Max_cycle;Signal;HPM_P1;HPM_P2
2022/08/13 00:00:59;;;;;;;3.37;1.77;;;;;;;22.72;36.18;98060.84;8249716;28;20235;-78
2022/08/13 00:05:05;;;;;;;5.40;1.83;;;;;;;22.60;36.56;98062.00;8249840;28;20237;-77
2022/08/13 00:09:28;;;;;;;3.10;1.80;;;;;;;22.47;37.14;98050.91;8249506;28;20230;-78
2022/08/13 00:13:45;;;;;;;3.10;1.93;;;;;;;22.48;36.55;98049.91;8249712;28;20415;-78
2022/08/13 00:17:54;;;;;;;4.07;2.00;;;;;;;22.35;37.49;98047.56;8249239;28;20522;-78
2022/08/13 00:22:06;;;;;;;2.57;2.00;;;;;;;22.30;37.40;98040.06;8249714;28;20247;-76
2022/08/13 00:26:30;;;;;;;5.30;2.20;;;;;;;22.20;37.38;98047.09;8249137;28;20229;-78
2022/08/13 00:30:38;;;;;;;3.47;1.90;;;;;;;22.18;37.39;98042.00;8249593;28;20233;-78
2022/08/13 00:34:44;;;;;;;4.07;1.90;;;;;;;22.00;37.70;98046.28;8249234;28;20233;-78
2022/08/13 00:38:47;;;;;;;2.90;1.80;;;;;;;21.99;37.94;98044.63;8249011;28;20232;-79
2022/08/13 00:42:52;;;;;;;3.70;2.17;;;;;;;21.91;37.79;98033.94;8248937;28;20226;-78
2022/08/13 00:51:17;;;;;;;3.50;1.97;;;;;;;21.85;38.38;98044.03;8248751;28;20283;-79
2022/08/13 00:55:40;;;;;;;3.53;1.80;;;;;;;21.82;38.29;98043.53;8249010;28;20228;-78
2022/08/13 00:59:43;;;;;;;3.47;2.00;;;;;;;21.79;38.59;98030.59;8249122;28;20234;-78
2022/08/13 01:03:48;;;;;;;3.90;1.83;;;;;;;21.81;38.44;98026.03;8248683;28;20241;-78
2022/08/13 01:08:11;;;;;;;3.00;1.80;;;;;;;21.61;38.78;98023.38;8248527;28;20240;-79
2022/08/13 01:12:21;;;;;;;4.17;2.00;;;;;;;21.57;38.80;98024.63;8248908;28;20350;-78
2022/08/13 01:16:28;;;;;;;4.40;2.10;;;;;;;21.48;38.70;98026.25;8248644;28;20352;-78
2022/08/13 01:20:34;;;;;;;6.60;2.00;;;;;;;21.46;38.74;98020.28;8248440;28;20234;-78
2022/08/13 01:24:41;;;;;;;3.97;2.03;;;;;;;21.43;38.68;98011.78;8248652;28;20431;-78
2022/08/13 01:28:45;;;;;;;3.70;1.90;;;;;;;21.35;38.71;98016.91;8248620;28;20231;-78
2022/08/13 01:32:55;;;;;;;8.23;2.27;;;;;;;21.36;38.92;98010.66;8248239;28;20379;-79
2022/08/13 01:36:59;;;;;;;4.93;2.50;;;;;;;21.31;39.25;98016.34;8248582;28;20239;-78
2022/08/13 01:41:04;;;;;;;4.90;2.30;;;;;;;21.18;39.47;98010.47;8253195;28;20249;-78
2022/08/13 01:45:14;;;;;;;3.37;2.10;;;;;;;21.21;39.68;98005.78;8254131;28;20225;-78
2022/08/13 01:53:49;;;;;;;4.90;2.20;;;;;;;21.16;39.62;98015.03;8253354;28;20311;-78
2022/08/13 01:57:54;;;;;;;4.77;2.37;;;;;;;21.10;39.75;98019.03;8253608;28;20335;-78
2022/08/13 02:01:58;;;;;;;2.37;1.93;;;;;;;21.15;39.95;98016.00;8253813;28;20241;-78
2022/08/13 02:06:06;;;;;;;7.83;2.00;;;;;;;21.10;39.85;98016.41;8253469;28;20234;-78
2022/08/13 02:10:28;;;;;;;3.93;2.30;;;;;;;21.01;39.95;98014.56;8253365;28;20226;-78
2022/08/13 02:14:33;;;;;;;3.13;2.20;;;;;;;21.00;40.36;98012.88;8253219;28;20233;-78
2022/08/13 02:18:38;;;;;;;3.23;2.30;;;;;;;21.00;39.92;97991.84;8253387;28;20239;-78
2022/08/13 02:22:41;;;;;;;3.57;2.40;;;;;;;20.85;40.08;97996.66;8253086;28;20241;-78
2022/08/13 02:26:47;;;;;;;4.53;2.30;;;;;;;20.80;40.34;97994.41;8252603;28;20290;-77
2022/08/13 02:30:57;;;;;;;2.40;2.10;;;;;;;20.67;40.90;97997.22;8252777;28;20230;-78
2022/08/13 02:35:01;;;;;;;4.07;2.20;;;;;;;20.76;40.62;98002.69;8252753;28;20238;-78
2022/08/13 02:39:06;;;;;;;5.63;2.10;;;;;;;20.59;40.81;97994.41;8252263;28;20269;-78
2022/08/13 02:43:09;;;;;;;3.10;2.00;;;;;;;20.55;40.83;97992.16;8252460;28;20237;-78
2022/08/13 02:47:14;;;;;;;7.43;2.20;;;;;;;20.42;40.88;97987.09;8252156;28;20549;-78
2022/08/13 02:51:20;;;;;;;3.10;2.23;;;;;;;20.45;40.93;97984.22;8250947;28;20285;-77
2022/08/13 02:55:42;;;;;;;3.50;2.30;;;;;;;20.46;40.96;97986.72;8251990;28;20235;-78
2022/08/13 02:59:48;;;;;;;3.63;2.23;;;;;;;20.33;41.39;97985.25;8251416;28;20230;-77
2022/08/13 03:04:14;;;;;;;4.77;2.30;;;;;;;20.35;41.18;97986.78;8251863;28;20227;-78
2022/08/13 03:08:20;;;;;;;2.90;2.20;;;;;;;20.32;41.29;97989.69;8251938;28;20273;-78
2022/08/13 03:12:45;;;;;;;3.30;2.33;;;;;;;20.25;41.88;97984.09;8251589;28;20532;-78
2022/08/13 03:16:48;;;;;;;3.40;2.40;;;;;;;20.18;41.71;97996.09;8251001;28;20230;-77
2022/08/13 03:20:53;;;;;;;4.40;2.40;;;;;;;20.26;41.86;97992.84;8251269;28;20234;-78
2022/08/13 03:24:57;;;;;;;4.13;2.10;;;;;;;20.22;42.09;97994.03;8251161;28;20241;-78
2022/08/13 03:29:01;;;;;;;3.63;2.47;;;;;;;20.15;42.33;97995.53;8251040;28;20530;-78
2022/08/13 03:33:07;;;;;;;5.90;2.30;;;;;;;20.19;41.98;97987.25;8250703;28;20248;-78
2022/08/13 03:37:14;;;;;;;5.20;2.50;;;;;;;20.17;42.54;97989.16;8250757;28;20231;-78
2022/08/13 03:41:17;;;;;;;5.10;2.60;;;;;;;20.20;42.91;97982.81;8250362;28;20230;-78
2022/08/13 03:45:24;;;;;;;3.30;3.00;;;;;;;20.09;43.04;97995.06;8250404;28;20230;-78
2022/08/13 03:49:28;;;;;;;4.83;2.80;;;;;;;20.10;43.43;97980.97;8250437;28;20541;-78
2022/08/13 03:53:33;;;;;;;4.57;2.50;;;;;;;20.07;43.39;97983.84;8250193;28;20234;-78
2022/08/13 03:57:45;;;;;;;2.90;2.60;;;;;;;19.98;43.60;97992.50;8250191;28;20297;-78
2022/08/13 04:02:08;;;;;;;5.23;2.67;;;;;;;19.96;43.29;97991.78;8249431;28;20495;-78
2022/08/13 04:06:15;;;;;;;3.90;2.67;;;;;;;19.94;43.26;97980.56;8249432;28;20354;-77
2022/08/13 04:10:20;;;;;;;7.23;2.50;;;;;;;19.93;43.46;97984.13;8250040;28;20516;-77
2022/08/13 04:14:26;;;;;;;6.47;2.50;;;;;;;19.88;43.60;97986.34;8249984;28;20230;-78
2022/08/13 04:18:44;;;;;;;3.87;2.40;;;;;;;19.94;43.22;97993.72;8249778;28;20560;-78
2022/08/13 04:22:47;;;;;;;2.80;2.50;;;;;;;19.81;43.36;97987.78;8249348;28;20233;-77
2022/08/13 04:26:52;;;;;;;3.53;2.60;;;;;;;19.83;43.58;97991.13;8249429;28;20244;-77
2022/08/13 04:30:56;;;;;;;4.00;2.70;;;;;;;19.78;43.56;97980.16;8249566;28;20349;-77
2022/08/13 04:35:00;;;;;;;4.40;2.80;;;;;;;19.78;43.32;97990.66;8249410;28;20252;-77
2022/08/13 04:39:10;;;;;;;3.37;2.57;;;;;;;19.90;43.44;97990.50;8249065;28;20230;-78
2022/08/13 04:43:18;;;;;;;3.70;2.60;;;;;;;19.91;43.54;97983.44;8249322;28;20242;-78
2022/08/13 04:47:21;;;;;;;4.03;2.80;;;;;;;20.00;43.33;97998.44;8249369;28;20232;-78
2022/08/13 04:51:25;;;;;;;4.27;2.60;;;;;;;19.96;43.25;97994.41;8249281;28;20293;-80
2022/08/13 04:55:36;;;;;;;3.47;2.57;;;;;;;19.97;43.24;97988.22;8249242;28;20234;-80
2022/08/13 05:00:02;;;;;;;6.20;2.73;;;;;;;20.03;43.09;97987.69;8248910;28;20238;-80
2022/08/13 05:04:06;;;;;;;4.43;2.60;;;;;;;20.02;43.55;97987.81;8249161;28;20242;-80
2022/08/13 05:08:25;;;;;;;4.47;2.40;;;;;;;20.19;43.14;97979.34;8249026;28;20234;-77
2022/08/13 05:12:28;;;;;;;8.00;2.80;;;;;;;20.17;43.42;97980.44;8248962;28;20234;-78
2022/08/13 05:16:49;;;;;;;3.67;2.70;;;;;;;20.37;42.36;97971.72;8254758;28;20294;-75
2022/08/13 05:21:05;;;;;;;2.90;2.70;;;;;;;20.43;42.39;97973.84;8254869;28;20518;-78
2022/08/13 05:25:09;;;;;;;3.00;2.30;;;;;;;20.45;42.50;97973.72;8254814;28;20406;-78
2022/08/13 05:29:32;;;;;;;3.70;2.53;;;;;;;20.55;42.58;97979.03;8254612;28;20233;-78
2022/08/13 05:33:40;;;;;;;2.63;2.43;;;;;;;20.62;43.21;97975.78;8254861;28;20229;-78
2022/08/13 05:38:02;;;;;;;3.47;2.80;;;;;;;20.75;42.79;97979.97;8253715;28;20524;-78
2022/08/13 05:42:19;;;;;;;8.30;2.67;;;;;;;20.96;42.02;97983.41;8254515;28;20232;-78
2022/08/13 05:46:30;;;;;;;4.60;2.50;;;;;;;21.06;42.24;97980.78;8254519;28;20230;-78
2022/08/13 05:50:37;;;;;;;3.90;2.60;;;;;;;21.12;42.03;97984.69;8254316;28;20232;-78
2022/08/13 05:54:42;;;;;;;2.47;2.27;;;;;;;21.24;42.06;97989.69;8254024;28;20234;-78
2022/08/13 05:59:05;;;;;;;4.40;2.70;;;;;;;21.41;41.85;97992.66;8253648;28;20233;-78
2022/08/13 06:03:25;;;;;;;4.03;2.30;;;;;;;21.61;41.40;98002.28;8253742;28;20239;-78
2022/08/13 06:07:49;;;;;;;6.10;2.00;;;;;;;21.89;40.94;97994.53;8253058;28;20512;-77
2022/08/13 06:11:52;;;;;;;5.43;2.20;;;;;;;21.98;40.35;98000.78;8253578;28;20238;-78
2022/08/13 06:16:17;;;;;;;7.57;2.30;;;;;;;22.19;41.12;97987.44;8253335;28;20238;-78
2022/08/13 06:20:41;;;;;;;4.70;2.27;;;;;;;22.44;40.17;97993.94;8253409;28;20229;-79
2022/08/13 06:25:06;;;;;;;6.00;2.43;;;;;;;22.51;40.15;97981.84;8252564;28;20243;-78
2022/08/13 06:29:14;;;;;;;4.67;1.97;;;;;;;22.58;39.57;97990.00;8252907;28;20232;-79
2022/08/13 06:33:22;;;;;;;3.73;2.20;;;;;;;22.83;39.05;97992.03;8252840;28;20238;-80
2022/08/13 06:37:46;;;;;;;6.50;2.33;;;;;;;22.90;38.87;97989.63;8252594;28;20226;-79
2022/08/13 06:41:55;;;;;;;3.33;1.90;;;;;;;23.34;38.16;97991.66;8252075;28;20297;-79
2022/08/13 06:46:06;;;;;;;2.33;1.90;;;;;;;23.58;37.71;97983.19;8252518;28;20296;-77
2022/08/13 06:50:11;;;;;;;6.00;2.20;;;;;;;23.41;37.85;97990.91;8252638;28;20408;-78
2022/08/13 06:54:17;;;;;;;4.43;1.93;;;;;;;23.71;37.10;97993.38;8252355;28;20238;-80
2022/08/13 06:58:31;;;;;;;11.87;2.27;;;;;;;24.04;37.52;97981.31;8252150;28;20239;-79
2022/08/13 07:02:35;;;;;;;1.97;1.60;;;;;;;24.16;36.99;97989.81;8252618;28;20408;-84
2022/08/13 07:06:41;;;;;;;10.67;2.40;;;;;;;24.31;36.74;97983.00;8252263;28;20245;-79
2022/08/13 07:10:46;;;;;;;8.47;2.50;;;;;;;24.43;36.52;97988.88;8251920;28;20229;-79
2022/08/13 07:14:51;;;;;;;5.53;1.93;;;;;;;24.78;36.28;97987.94;8251302;28;20580;-79
2022/08/13 07:19:01;;;;;;;4.63;2.00;;;;;;;24.98;35.99;97987.72;8251589;28;20297;-79
2022/08/13 07:23:04;;;;;;;4.07;1.90;;;;;;;25.18;35.73;97994.41;8251517;28;20292;-79
2022/08/13 07:27:27;;;;;;;9.30;2.23;;;;;;;25.41;35.38;97990.38;8251144;28;20222;-79
2022/08/13 07:31:39;;;;;;;4.93;2.13;;;;;;;25.75;34.15;97999.06;8251450;28;20259;-78
2022/08/13 07:36:05;;;;;;;4.03;2.00;;;;;;;25.94;34.10;97987.34;8250006;28;20245;-78
2022/08/13 07:40:12;;;;;;;6.20;2.20;;;;;;;26.07;33.99;97978.06;8251157;28;20322;-78
2022/08/13 07:44:21;;;;;;;3.53;2.03;;;;;;;25.83;33.89;97992.13;8251267;28;20295;-78
2022/08/13 07:48:25;;;;;;;3.47;2.10;;;;;;;25.49;35.02;97985.94;8250832;28;20232;-78
2022/08/13 07:52:39;;;;;;;4.27;2.13;;;;;;;26.02;34.66;97989.16;8250994;28;20537;-78
2022/08/13 07:56:47;;;;;;;3.47;2.00;;;;;;;26.48;33.95;97993.94;8250720;28;20231;-78
2022/08/13 08:00:59;;;;;;;5.20;2.13;;;;;;;27.10;32.60;97996.78;8250247;28;20231;-78
2022/08/13 08:05:10;;;;;;;4.07;1.93;;;;;;;27.55;33.01;97990.94;8250486;28;20240;-78
2022/08/13 08:09:17;;;;;;;5.37;2.17;;;;;;;27.81;31.38;97987.94;8250406;28;20311;-79
2022/08/13 08:13:21;;;;;;;4.33;2.00;;;;;;;28.26;31.19;97978.31;8250212;28;20400;-78
2022/08/13 08:17:26;;;;;;;3.13;2.00;;;;;;;28.38;31.40;97992.00;8250154;28;20322;-78
2022/08/13 08:21:51;;;;;;;4.47;2.00;;;;;;;28.02;31.82;97992.66;8249577;28;20231;-77
2022/08/13 08:26:14;;;;;;;5.07;2.00;;;;;;;27.82;31.76;97992.28;8249794;28;20515;-79
2022/08/13 08:30:20;;;;;;;6.63;1.90;;;;;;;28.73;30.76;97990.53;8250123;28;20222;-78
2022/08/13 08:34:25;;;;;;;6.93;2.33;;;;;;;29.34;29.59;97992.13;8249826;28;20582;-78
2022/08/13 08:43:10;;;;;;;5.23;2.00;;;;;;;28.54;28.74;97985.72;8220841;28;20236;-78
2022/08/13 08:47:28;;;;;;;3.20;1.80;;;;;;;29.14;29.68;97989.25;8250868;28;20237;-78
2022/08/13 08:51:51;;;;;;;3.03;1.93;;;;;;;29.35;28.94;97991.13;8255772;28;20228;-78
2022/08/13 08:55:56;;;;;;;4.47;2.10;;;;;;;29.37;28.44;97989.91;8255929;28;20237;-78
2022/08/13 09:00:05;;;;;;;4.27;1.80;;;;;;;30.35;27.87;97986.84;8255512;28;20306;-77
2022/08/13 09:04:11;;;;;;;4.13;1.80;;;;;;;30.49;27.13;97985.06;8255850;28;20225;-78
2022/08/13 09:08:18;;;;;;;7.53;1.80;;;;;;;30.91;26.34;97972.59;8255654;28;20229;-78
2022/08/13 09:12:26;;;;;;;3.13;1.67;;;;;;;30.04;26.01;97971.94;8255543;28;20225;-78
2022/08/13 09:16:31;;;;;;;4.70;1.57;;;;;;;31.04;25.64;97970.00;8255408;28;20237;-79
2022/08/13 09:20:34;;;;;;;2.53;1.70;;;;;;;31.61;24.79;97970.63;8255444;28;20231;-78
2022/08/13 09:24:45;;;;;;;3.63;1.63;;;;;;;30.62;24.32;97968.31;8255035;28;20560;-78
2022/08/13 09:28:56;;;;;;;2.10;1.37;;;;;;;31.61;24.12;97965.28;8254594;28;20257;-77
2022/08/13 09:33:00;;;;;;;5.00;1.60;;;;;;;31.90;23.32;97957.88;8254856;28;20229;-78
2022/08/13 09:37:03;;;;;;;5.67;1.73;;;;;;;32.43;23.40;97965.13;8254451;28;20242;-78
2022/08/13 09:41:14;;;;;;;4.77;1.60;;;;;;;32.49;23.13;97957.06;8254729;28;20248;-79
2022/08/13 09:45:24;;;;;;;2.30;1.50;;;;;;;32.59;23.57;97962.00;8254422;28;20232;-78
2022/08/13 09:49:33;;;;;;;2.00;1.50;;;;;;;32.50;23.06;97957.88;8254319;28;20229;-78
2022/08/13 09:53:56;;;;;;;3.27;1.57;;;;;;;32.77;22.29;97944.44;8253949;28;20232;-77
2022/08/13 09:58:00;;;;;;;2.83;1.27;;;;;;;32.45;22.80;97953.16;8254180;28;20249;-76
2022/08/13 10:02:09;;;;;;;4.10;1.60;;;;;;;32.90;22.22;97942.56;8253539;28;20234;-78
2022/08/13 10:06:18;;;;;;;3.90;1.40;;;;;;;32.43;22.42;97943.69;8253717;28;20238;-76
2022/08/13 10:10:23;;;;;;;8.03;1.60;;;;;;;32.99;21.75;97942.31;8253513;28;20639;-76
2022/08/13 10:14:35;;;;;;;2.07;1.60;;;;;;;32.20;22.18;97933.41;8253708;28;20434;-76
2022/08/13 10:18:41;;;;;;;3.00;1.23;;;;;;;31.25;23.45;97928.09;8253466;28;20238;-76
2022/08/13 10:22:45;;;;;;;4.97;1.70;;;;;;;32.67;21.66;97928.78;8253181;28;20235;-78
2022/08/13 10:26:48;;;;;;;2.40;1.43;;;;;;;32.90;21.65;97925.63;8252584;28;20229;-77
2022/08/13 10:30:52;;;;;;;4.27;1.60;;;;;;;33.41;21.77;97932.03;8252987;28;20227;-77
2022/08/13 10:35:17;;;;;;;4.27;1.40;;;;;;;33.27;20.95;97933.97;8252938;28;20555;-77
2022/08/13 10:39:20;;;;;;;2.23;1.57;;;;;;;32.09;20.80;97922.28;8252274;28;20236;-76
2022/08/13 10:43:26;;;;;;;1.77;1.10;;;;;;;32.15;20.74;97921.44;8252835;28;20422;-76
2022/08/13 10:47:49;;;;;;;12.43;1.80;;;;;;;32.80;20.93;97915.34;8251753;28;20538;-75
2022/08/13 10:52:04;;;;;;;2.93;1.60;;;;;;;32.64;21.15;97911.28;8251972;28;20239;-76
2022/08/13 10:56:08;;;;;;;3.50;1.77;;;;;;;32.99;20.46;97910.13;8251889;28;20251;-75
2022/08/13 11:00:12;;;;;;;3.40;1.30;;;;;;;32.97;19.19;97917.56;8251945;28;20248;-74
2022/08/13 11:04:17;;;;;;;2.70;1.43;;;;;;;31.92;20.43;97900.41;8251625;28;20536;-76
2022/08/13 11:08:24;;;;;;;4.13;1.60;;;;;;;33.02;19.99;97905.16;8251793;28;20232;-79
2022/08/13 11:12:34;;;;;;;2.77;1.40;;;;;;;32.95;19.36;97895.50;8250609;28;20234;-79
2022/08/13 11:21:28;;;;;;;1.77;1.40;;;;;;;33.74;20.20;97894.25;8251087;28;20241;-77
2022/08/13 11:25:52;;;;;;;2.70;1.40;;;;;;;34.30;19.01;97889.84;8251123;28;20238;-77
2022/08/13 11:30:16;;;;;;;4.43;1.53;;;;;;;33.15;19.15;97884.69;8251220;28;20232;-78
2022/08/13 11:34:37;;;;;;;4.43;1.60;;;;;;;32.67;19.14;97868.00;8251342;28;20231;-78
2022/08/13 11:38:40;;;;;;;2.27;1.40;;;;;;;34.06;18.04;97872.69;8251075;28;20235;-79
2022/08/13 11:42:44;;;;;;;2.73;1.47;;;;;;;32.64;18.88;97873.75;8251291;28;20232;-78
2022/08/13 11:47:07;;;;;;;3.17;1.30;;;;;;;32.60;19.05;97867.19;8250813;28;20249;-78
2022/08/13 11:51:20;;;;;;;2.57;1.30;;;;;;;31.90;19.26;97861.50;8250847;28;20236;-78
2022/08/13 11:55:28;;;;;;;2.57;1.40;;;;;;;32.28;19.33;97860.84;8250959;28;20264;-78
2022/08/13 11:59:52;;;;;;;2.57;1.30;;;;;;;32.83;18.70;97857.81;8250119;28;20233;-78
2022/08/13 12:04:00;;;;;;;3.63;1.40;;;;;;;31.99;19.78;97854.91;8250547;28;20244;-78
2022/08/13 12:08:22;;;;;;;1.77;1.30;;;;;;;32.06;19.49;97846.88;8250392;28;20336;-78
2022/08/13 12:12:46;;;;;;;2.70;1.20;;;;;;;33.59;18.95;97843.53;8250298;28;20231;-78
2022/08/13 12:16:54;;;;;;;3.60;1.30;;;;;;;34.30;18.56;97837.97;8249621;28;20257;-78
2022/08/13 12:20:58;;;;;;;2.17;1.40;;;;;;;34.28;17.71;97838.19;8250122;28;20237;-78
2022/08/13 12:25:02;;;;;;;3.77;1.40;;;;;;;33.92;18.42;97847.81;8249846;28;20584;-78
2022/08/13 12:29:25;;;;;;;2.30;1.30;;;;;;;33.66;17.82;97838.97;8249794;28;20221;-79
2022/08/13 12:33:46;;;;;;;3.00;1.30;;;;;;;34.36;17.49;97831.69;8249878;28;20252;-79
2022/08/13 12:37:49;;;;;;;2.13;1.30;;;;;;;34.40;17.27;97827.50;8249435;28;20243;-78
2022/08/13 12:42:11;;;;;;;1.83;1.30;;;;;;;34.48;17.35;97827.19;8249601;28;20535;-78
2022/08/13 12:46:15;;;;;;;2.37;1.37;;;;;;;34.81;16.71;97802.59;8249711;28;20244;-79
2022/08/13 12:50:38;;;;;;;1.60;1.40;;;;;;;33.69;16.83;97794.75;8249686;28;20242;-78
2022/08/13 12:54:42;;;;;;;2.30;1.37;;;;;;;34.24;17.77;97796.69;8249578;28;20236;-79
2022/08/13 12:59:05;;;;;;;2.10;1.50;;;;;;;34.41;17.09;97799.59;8249255;28;20238;-79
2022/08/13 13:03:09;;;;;;;3.00;1.53;;;;;;;35.06;16.68;97804.34;8249403;28;20378;-79
2022/08/13 13:07:16;;;;;;;2.43;1.30;;;;;;;35.26;16.62;97800.53;8249213;28;20343;-78
2022/08/13 13:11:19;;;;;;;1.43;1.20;;;;;;;34.79;17.03;97801.22;8249306;28;20248;-79
2022/08/13 13:15:22;;;;;;;2.28;1.20;;;;;;;34.32;17.50;97803.63;8249301;28;20240;-79
2022/08/13 13:19:45;;;;;;;2.42;1.30;;;;;;;34.22;17.30;97799.59;8248933;28;20233;-79
2022/08/13 13:24:10;;;;;;;4.87;1.63;;;;;;;34.24;17.10;97797.50;8248736;28;20245;-79
2022/08/13 13:28:24;;;;;;;2.33;1.50;;;;;;;34.39;16.82;97797.13;8248998;28;20236;-79
2022/08/13 13:32:33;;;;;;;6.10;1.70;;;;;;;34.26;16.72;97795.41;8249065;28;20295;-79
2022/08/13 13:36:51;;;;;;;4.43;1.50;;;;;;;32.78;18.06;97790.59;8253415;28;20233;-78
2022/08/13 13:40:58;;;;;;;2.55;1.40;;;;;;;33.71;17.54;97783.78;8254602;28;20235;-79
2022/08/13 13:45:03;;;;;;;2.43;1.70;;;;;;;33.42;17.71;97778.03;8254839;28;20513;-78
2022/08/13 13:49:06;;;;;;;1.67;1.27;;;;;;;33.66;17.65;97771.00;8254574;28;20383;-76
2022/08/13 13:53:08;;;;;;;4.00;1.70;;;;;;;33.69;18.14;97766.00;8254635;28;20395;-78
2022/08/13 13:57:33;;;;;;;1.27;1.17;;;;;;;33.95;16.73;97761.44;8254182;28;20561;-79
2022/08/13 14:01:51;;;;;;;3.07;1.50;;;;;;;33.83;17.46;97763.19;8253957;28;20331;-78
2022/08/13 14:05:56;;;;;;;2.63;1.60;;;;;;;32.56;17.69;97755.19;8254008;28;20252;-79
2022/08/13 14:10:04;;;;;;;3.23;1.40;;;;;;;32.53;18.53;97756.47;8254158;28;20557;-79
2022/08/13 14:14:08;;;;;;;2.73;1.50;;;;;;;33.14;18.05;97752.44;8253905;28;20282;-79
2022/08/13 14:18:15;;;;;;;4.30;1.47;;;;;;;32.53;18.11;97754.59;8253769;28;20248;-79
2022/08/13 14:22:29;;;;;;;2.07;1.60;;;;;;;33.08;18.12;97746.03;8253874;28;20512;-79
2022/08/13 14:26:34;;;;;;;3.57;1.60;;;;;;;33.12;17.85;97754.50;8253629;28;20428;-79
2022/08/13 14:30:39;;;;;;;2.77;1.43;;;;;;;33.21;17.59;97750.53;8253506;28;20292;-77
2022/08/13 14:34:43;;;;;;;2.73;1.37;;;;;;;33.43;17.68;97734.84;8253259;28;20244;-76
2022/08/13 14:38:58;;;;;;;2.90;1.30;;;;;;;33.38;17.58;97732.00;8252488;28;20526;-76
2022/08/13 14:43:02;;;;;;;3.83;1.30;;;;;;;33.47;17.20;97730.69;8253173;28;20564;-76
2022/08/13 14:47:21;;;;;;;2.60;1.57;;;;;;;32.50;17.99;97741.66;8252838;28;20230;-76
2022/08/13 14:51:30;;;;;;;2.07;1.47;;;;;;;32.03;18.35;97729.47;8252825;28;20230;-76
2022/08/13 14:55:57;;;;;;;2.63;1.60;;;;;;;31.99;19.10;97730.88;8252322;28;20244;-76
2022/08/13 15:00:00;;;;;;;1.80;1.50;;;;;;;31.78;19.44;97732.81;8252554;28;20252;-76
2022/08/13 15:04:09;;;;;;;3.53;1.40;;;;;;;31.60;19.37;97722.75;8252364;28;20228;-77
2022/08/13 15:08:17;;;;;;;3.13;1.67;;;;;;;31.57;19.89;97723.19;8252310;28;20261;-77
2022/08/13 15:12:34;;;;;;;4.03;1.60;;;;;;;31.75;19.98;97717.16;8252046;28;20397;-78
2022/08/13 15:16:38;;;;;;;1.83;1.50;;;;;;;32.52;19.06;97720.81;8251985;28;20239;-78
2022/08/13 15:20:46;;;;;;;3.40;1.70;;;;;;;32.86;18.76;97710.75;8251601;28;20443;-78
2022/08/13 15:25:03;;;;;;;3.17;1.80;;;;;;;32.88;18.86;97708.66;8251339;28;20417;-78
2022/08/13 15:29:09;;;;;;;4.83;2.00;;;;;;;32.74;18.96;97707.09;8251503;28;20525;-78
2022/08/13 15:33:18;;;;;;;4.13;1.90;;;;;;;32.62;19.29;97711.50;8251223;28;20229;-78
2022/08/13 15:37:25;;;;;;;5.27;1.90;;;;;;;32.07;19.79;97712.78;8250972;28;20241;-78
2022/08/13 15:41:48;;;;;;;2.27;1.70;;;;;;;31.81;20.46;97707.47;8250462;28;20424;-76
2022/08/13 15:45:52;;;;;;;3.43;1.87;;;;;;;31.31;21.58;97705.28;8250941;28;20229;-77
2022/08/13 15:49:55;;;;;;;3.33;2.10;;;;;;;31.19;22.53;97702.41;8250810;28;20235;-78
2022/08/13 15:53:59;;;;;;;3.03;1.70;;;;;;;31.79;22.10;97701.50;8250531;28;20236;-77
2022/08/13 15:58:04;;;;;;;3.93;1.90;;;;;;;31.26;22.66;97694.34;8249847;28;20237;-77
2022/08/13 16:02:11;;;;;;;2.30;1.80;;;;;;;30.90;23.51;97696.44;8250123;28;20232;-77
2022/08/13 16:06:34;;;;;;;3.23;2.17;;;;;;;30.49;24.80;97693.88;8250243;28;20237;-78
2022/08/13 16:10:50;;;;;;;3.60;2.10;;;;;;;30.50;25.42;97690.16;8249877;28;20229;-79
2022/08/13 16:15:01;;;;;;;3.33;2.03;;;;;;;30.60;25.18;97686.06;8250313;28;20235;-77
2022/08/13 16:19:05;;;;;;;3.63;2.20;;;;;;;30.67;24.98;97682.59;8249918;28;20436;-78
2022/08/13 16:23:29;;;;;;;7.43;3.43;;;;;;;30.76;24.72;97676.03;8249854;28;20221;-78
2022/08/13 16:27:53;;;;;;;8.93;3.13;;;;;;;30.68;25.00;97677.03;8249149;28;20240;-76
2022/08/13 16:31:58;;;;;;;14.60;2.57;;;;;;;30.49;25.36;97678.66;8249501;28;20238;-78
2022/08/13 16:36:02;;;;;;;6.03;2.37;;;;;;;30.56;25.32;97681.34;8249264;28;20251;-78
2022/08/13 16:40:06;;;;;;;22.53;2.60;;;;;;;30.34;25.86;97686.84;8249194;28;20442;-77
2022/08/13 16:44:12;;;;;;;9.47;2.60;;;;;;;30.06;27.28;97681.56;8249642;28;20226;-79
2022/08/13 16:48:37;;;;;;;6.00;2.80;;;;;;;29.95;28.10;97690.13;8249055;28;20228;-78
2022/08/13 16:52:41;;;;;;;5.20;2.63;;;;;;;29.78;29.09;97687.81;8248922;28;20241;-78
2022/08/13 16:56:45;;;;;;;5.50;2.90;;;;;;;29.70;29.67;97682.63;8249202;28;20237;-78
2022/08/13 17:00:57;;;;;;;5.53;3.20;;;;;;;29.60;30.04;97688.28;8248791;28;20234;-77
2022/08/13 17:09:29;;;;;;;28.73;4.37;;;;;;;29.35;30.49;97676.44;8250033;28;20395;-78
2022/08/13 17:13:39;;;;;;;9.63;2.90;;;;;;;29.11;30.77;97677.66;8255556;28;20535;-78
2022/08/13 17:17:44;;;;;;;8.17;3.27;;;;;;;29.01;31.28;97676.16;8255155;28;20244;-78
2022/08/13 17:21:57;;;;;;;7.43;3.10;;;;;;;28.88;31.49;97678.72;8254777;28;20234;-78
2022/08/13 17:26:02;;;;;;;6.27;3.07;;;;;;;28.95;31.74;97678.78;8254926;28;20241;-78
2022/08/13 17:30:08;;;;;;;7.87;3.07;;;;;;;28.86;31.94;97683.41;8254848;28;20241;-78
2022/08/13 17:34:13;;;;;;;7.77;3.00;;;;;;;28.74;32.50;97680.44;8255071;28;20239;-78
2022/08/13 17:38:18;;;;;;;5.03;3.00;;;;;;;28.58;32.89;97676.19;8254819;28;20236;-78
2022/08/13 17:42:21;;;;;;;5.47;3.17;;;;;;;28.42;33.32;97689.72;8254735;28;20295;-78
2022/08/13 17:46:45;;;;;;;3.47;2.73;;;;;;;28.52;33.21;97692.09;8254520;28;20236;-78
2022/08/13 17:50:54;;;;;;;8.50;3.13;;;;;;;28.44;32.95;97683.19;8254175;28;20237;-77
2022/08/13 17:55:10;;;;;;;3.33;3.03;;;;;;;28.32;33.21;97695.34;8254531;28;20596;-78
2022/08/13 17:59:14;;;;;;;8.77;3.50;;;;;;;28.20;33.93;97692.34;8254055;28;20241;-78
2022/08/13 18:03:17;;;;;;;8.50;3.90;;;;;;;28.13;33.91;97691.44;8254141;28;20237;-78
2022/08/13 18:07:22;;;;;;;3.20;2.90;;;;;;;28.12;34.11;97689.81;8253904;28;20239;-79
2022/08/13 18:11:25;;;;;;;5.13;2.70;;;;;;;28.07;34.20;97678.88;8253865;28;20236;-78
2022/08/13 18:15:28;;;;;;;9.20;3.37;;;;;;;27.97;34.24;97691.63;8253327;28;20243;-78
2022/08/13 18:19:51;;;;;;;6.37;3.50;;;;;;;27.81;35.19;97697.97;8251598;28;20240;-78
2022/08/13 18:23:57;;;;;;;6.90;3.30;;;;;;;27.83;34.90;97699.41;8252473;28;20227;-78
2022/08/13 18:28:04;;;;;;;4.07;3.10;;;;;;;27.68;35.34;97695.94;8252773;28;20238;-80
2022/08/13 18:32:18;;;;;;;13.33;3.60;;;;;;;27.75;36.01;97710.16;8252453;28;20227;-82
2022/08/13 18:36:33;;;;;;;6.23;3.10;;;;;;;27.59;36.39;97710.34;8252355;28;20255;-82
2022/08/13 18:40:44;;;;;;;6.63;3.30;;;;;;;27.50;35.95;97706.94;8252529;28;20239;-80
2022/08/13 18:44:49;;;;;;;6.40;3.23;;;;;;;27.54;35.81;97710.88;8252214;28;20236;-84
2022/08/13 18:48:57;;;;;;;8.57;3.97;;;;;;;27.53;36.33;97716.38;8252344;28;20241;-82
2022/08/13 18:53:01;;;;;;;4.37;3.30;;;;;;;27.50;36.57;97720.25;8252470;28;20318;-81
2022/08/13 18:57:25;;;;;;;5.47;3.60;;;;;;;27.47;36.60;97726.75;8252281;28;20236;-80
2022/08/13 19:01:31;;;;;;;4.73;3.80;;;;;;;27.28;37.48;97724.59;8251821;28;20287;-80
2022/08/13 19:05:35;;;;;;;4.47;3.30;;;;;;;27.33;37.59;97729.38;8252205;28;20239;-80
2022/08/13 19:09:46;;;;;;;6.43;3.50;;;;;;;27.22;37.62;97730.59;8251380;28;20517;-82
2022/08/13 19:13:53;;;;;;;13.30;3.93;;;;;;;27.23;37.16;97730.44;8251242;28;20433;-78
2022/08/13 19:17:58;;;;;;;4.70;3.17;;;;;;;27.18;38.21;97729.31;8251580;28;20246;-81
2022/08/13 19:22:02;;;;;;;5.70;3.20;;;;;;;27.12;38.55;97749.47;8251149;28;20298;-81
2022/08/13 19:52:27;;;;;;;8.30;3.60;;;;;;;26.70;40.18;97745.44;8249979;28;20428;-81
2022/08/13 19:56:35;;;;;;;12.60;3.50;;;;;;;26.68;40.30;97740.31;8249923;28;20426;-81
2022/08/13 20:00:38;;;;;;;5.87;3.63;;;;;;;26.60;40.47;97736.84;8249471;28;20230;-81
2022/08/13 20:15:14;;;;;;;5.00;3.60;;;;;;;26.48;40.79;97745.22;8289546;23;20402;-78
2022/08/13 20:19:32;;;;;;;6.03;3.80;;;;;;;26.40;41.51;97742.59;8283227;28;20345;-78
2022/08/13 20:23:55;;;;;;;4.90;3.70;;;;;;;26.37;41.82;97745.63;8281771;28;20258;-78
2022/08/13 20:27:58;;;;;;;4.53;4.10;;;;;;;26.32;41.92;97742.63;8283090;28;20236;-77
2022/08/13 20:32:04;;;;;;;5.43;3.80;;;;;;;26.26;42.02;97746.81;8282167;28;20268;-78
2022/08/13 20:36:07;;;;;;;5.03;4.20;;;;;;;26.26;42.26;97746.00;8282433;28;20620;-75